TimeEST,TemperatureF,Dew PointF,Humidity,Sea Level PressureIn,VisibilityMPH,Wind Direction,Wind SpeedMPH,Gust SpeedMPH,PrecipitationIn,Events,Conditions,WindDirDegrees,DateUTC
12:52 AM,23.0,3.9,44,30.11,10.0,West,6.9,-,N/A,,Clear,260,2013-02-02 05:52:00
1:52 AM,21.9,5.0,48,30.13,10.0,West,6.9,-,N/A,,Clear,270,2013-02-02 06:52:00
2:52 AM,21.9,5.0,48,30.14,10.0,WSW,6.9,-,N/A,,Partly Cloudy,240,2013-02-02 07:52:00
3:52 AM,21.9,5.0,48,30.15,10.0,West,8.1,-,N/A,,Clear,280,2013-02-02 08:52:00
4:52 AM,21.9,3.0,44,30.18,10.0,WNW,8.1,-,N/A,,Clear,300,2013-02-02 09:52:00
5:52 AM,19.9,3.9,50,30.20,10.0,Calm,Calm,-,N/A,,Clear,0,2013-02-02 10:52:00
6:52 AM,19.0,3.9,52,30.22,10.0,West,3.5,-,N/A,,Clear,260,2013-02-02 11:52:00
7:52 AM,21.0,5.0,50,30.24,10.0,West,3.5,-,N/A,,Clear,260,2013-02-02 12:52:00
8:52 AM,24.1,1.9,38,30.26,10.0,West,8.1,-,N/A,,Clear,280,2013-02-02 13:52:00
9:52 AM,26.1,1.9,35,30.25,10.0,West,8.1,-,N/A,,Clear,270,2013-02-02 14:52:00
10:52 AM,26.1,3.0,37,30.24,10.0,WSW,4.6,16.1,N/A,,Clear,250,2013-02-02 15:52:00
11:52 AM,28.9,3.9,35,30.21,10.0,WSW,8.1,-,N/A,,Clear,240,2013-02-02 16:52:00
1:52 PM,30.0,8.1,40,30.14,10.0,SW,11.5,19.6,N/A,,Clear,220,2013-02-02 18:52:00
3:52 PM,30.0,10.9,45,30.11,10.0,SSW,11.5,-,N/A,,Overcast,200,2013-02-02 20:52:00
4:52 PM,28.9,10.0,45,30.10,10.0,SSW,8.1,17.3,N/A,,Mostly Cloudy,200,2013-02-02 21:52:00
5:52 PM,28.9,12.0,49,30.09,10.0,SW,8.1,-,N/A,,Clear,220,2013-02-02 22:52:00
6:52 PM,28.9,12.0,49,30.08,10.0,SW,6.9,-,N/A,,Scattered Clouds,220,2013-02-02 23:52:00
7:52 PM,28.9,12.9,51,30.07,10.0,WSW,5.8,-,N/A,,Clear,240,2013-02-03 00:52:00
8:52 PM,28.9,14.0,54,30.07,10.0,Variable,3.5,-,N/A,,Overcast,0,2013-02-03 01:52:00
9:52 PM,28.9,14.0,54,30.06,10.0,WSW,3.5,-,N/A,,Overcast,240,2013-02-03 02:52:00
10:52 PM,28.9,14.0,54,30.05,10.0,Calm,Calm,-,N/A,,Overcast,0,2013-02-03 03:52:00
11:52 PM,28.0,15.1,58,30.06,10.0,WSW,10.4,17.3,N/A,,Overcast,250,2013-02-03 04:52:00